sensor_id;sensor_type;location;lat;lon;timestamp;P1;durP1;ratioP1;P2;durP2;ratioP2
20379;SDS011;10349;48.666;8.948;2023-04-25T00:02:02;4.97;;;2.93;;
20379;SDS011;10349;48.666;8.948;2023-04-25T00:04:28;3.33;;;3.13;;
20379;SDS011;10349;48.666;8.948;2023-04-25T00:06:55;3.60;;;3.30;;
20379;SDS011;10349;48.666;8.948;2023-04-25T00:09:21;3.23;;;2.90;;
20379;SDS011;10349;48.666;8.948;2023-04-25T00:11:47;3.60;;;3.27;;
20379;SDS011;10349;48.666;8.948;2023-04-25T00:14:13;3.37;;;3.17;;
20379;SDS011;10349;48.666;8.948;2023-04-25T00:16:39;3.67;;;3.37;;
20379;SDS011;10349;48.666;8.948;2023-04-25T00:19:06;3.10;;;2.90;;
20379;SDS011;10349;48.666;8.948;2023-04-25T00:21:32;5.87;;;3.40;;
20379;SDS011;10349;48.666;8.948;2023-04-25T00:23:58;3.50;;;3.30;;
20379;SDS011;10349;48.666;8.948;2023-04-25T00:26:24;3.30;;;3.03;;
20379;SDS011;10349;48.666;8.948;2023-04-25T00:28:50;3.10;;;2.80;;
20379;SDS011;10349;48.666;8.948;2023-04-25T00:31:16;3.80;;;3.57;;
20379;SDS011;10349;48.666;8.948;2023-04-25T00:33:41;3.60;;;3.30;;
20379;SDS011;10349;48.666;8.948;2023-04-25T00:36:07;3.73;;;3.43;;
20379;SDS011;10349;48.666;8.948;2023-04-25T00:38:33;3.80;;;3.47;;
20379;SDS011;10349;48.666;8.948;2023-04-25T00:40:59;3.57;;;3.37;;
20379;SDS011;10349;48.666;8.948;2023-04-25T00:43:26;3.83;;;3.50;;
20379;SDS011;10349;48.666;8.948;2023-04-25T00:45:52;5.70;;;3.30;;
20379;SDS011;10349;48.666;8.948;2023-04-25T00:48:20;2.50;;;2.30;;
20379;SDS011;10349;48.666;8.948;2023-04-25T00:50:51;2.77;;;2.57;;
20379;SDS011;10349;48.666;8.948;2023-04-25T00:53:19;3.90;;;3.27;;
20379;SDS011;10349;48.666;8.948;2023-04-25T00:55:49;4.73;;;3.10;;
20379;SDS011;10349;48.666;8.948;2023-04-25T00:58:18;3.83;;;3.00;;
20379;SDS011;10349;48.666;8.948;2023-04-25T01:00:45;9.53;;;3.60;;
20379;SDS011;10349;48.666;8.948;2023-04-25T01:03:15;4.67;;;3.70;;
20379;SDS011;10349;48.666;8.948;2023-04-25T01:05:42;4.73;;;3.40;;
20379;SDS011;10349;48.666;8.948;2023-04-25T01:08:08;3.23;;;3.00;;
20379;SDS011;10349;48.666;8.948;2023-04-25T01:10:35;5.97;;;3.50;;
20379;SDS011;10349;48.666;8.948;2023-04-25T01:13:01;2.57;;;2.43;;
20379;SDS011;10349;48.666;8.948;2023-04-25T01:15:27;6.50;;;3.23;;
20379;SDS011;10349;48.666;8.948;2023-04-25T01:17:53;2.40;;;2.30;;
20379;SDS011;10349;48.666;8.948;2023-04-25T01:20:23;2.70;;;2.50;;
20379;SDS011;10349;48.666;8.948;2023-04-25T01:22:53;2.63;;;2.43;;
20379;SDS011;10349;48.666;8.948;2023-04-25T01:25:20;2.10;;;2.00;;
20379;SDS011;10349;48.666;8.948;2023-04-25T01:27:46;5.80;;;2.43;;
20379;SDS011;10349;48.666;8.948;2023-04-25T01:30:12;2.57;;;2.30;;
20379;SDS011;10349;48.666;8.948;2023-04-25T01:32:40;2.70;;;2.50;;
20379;SDS011;10349;48.666;8.948;2023-04-25T01:35:08;3.27;;;2.47;;
20379;SDS011;10349;48.666;8.948;2023-04-25T01:37:36;2.50;;;2.30;;
20379;SDS011;10349;48.666;8.948;2023-04-25T01:40:03;5.10;;;2.80;;
20379;SDS011;10349;48.666;8.948;2023-04-25T01:45:14;2.80;;;2.40;;
20379;SDS011;10349;48.666;8.948;2023-04-25T01:47:40;5.07;;;2.90;;
20379;SDS011;10349;48.666;8.948;2023-04-25T01:50:08;2.97;;;2.77;;
20379;SDS011;10349;48.666;8.948;2023-04-25T01:52:36;3.13;;;2.90;;
20379;SDS011;10349;48.666;8.948;2023-04-25T01:55:02;3.20;;;2.90;;
20379;SDS011;10349;48.666;8.948;2023-04-25T01:57:30;2.90;;;2.70;;
20379;SDS011;10349;48.666;8.948;2023-04-25T02:00:00;3.20;;;2.90;;
20379;SDS011;10349;48.666;8.948;2023-04-25T02:02:39;2.90;;;2.70;;
20379;SDS011;10349;48.666;8.948;2023-04-25T02:05:15;2.50;;;2.40;;
20379;SDS011;10349;48.666;8.948;2023-04-25T02:07:42;6.00;;;3.47;;
20379;SDS011;10349;48.666;8.948;2023-04-25T02:10:08;6.03;;;3.57;;
20379;SDS011;10349;48.666;8.948;2023-04-25T02:12:41;9.90;;;4.63;;
20379;SDS011;10349;48.666;8.948;2023-04-25T02:15:21;3.33;;;3.07;;
20379;SDS011;10349;48.666;8.948;2023-04-25T02:17:50;3.40;;;3.20;;
20379;SDS011;10349;48.666;8.948;2023-04-25T02:20:18;3.40;;;2.87;;
20379;SDS011;10349;48.666;8.948;2023-04-25T02:22:45;3.50;;;3.20;;
20379;SDS011;10349;48.666;8.948;2023-04-25T02:25:11;4.63;;;4.30;;
20379;SDS011;10349;48.666;8.948;2023-04-25T02:27:38;3.77;;;3.50;;
20379;SDS011;10349;48.666;8.948;2023-04-25T02:30:04;3.87;;;3.57;;
20379;SDS011;10349;48.666;8.948;2023-04-25T02:32:32;3.50;;;3.13;;
20379;SDS011;10349;48.666;8.948;2023-04-25T02:34:59;3.63;;;3.33;;
20379;SDS011;10349;48.666;8.948;2023-04-25T02:37:38;3.30;;;3.07;;
20379;SDS011;10349;48.666;8.948;2023-04-25T02:40:05;3.33;;;3.03;;
20379;SDS011;10349;48.666;8.948;2023-04-25T02:42:31;2.70;;;2.60;;
20379;SDS011;10349;48.666;8.948;2023-04-25T02:44:57;3.03;;;2.83;;
20379;SDS011;10349;48.666;8.948;2023-04-25T02:47:23;3.73;;;3.17;;
20379;SDS011;10349;48.666;8.948;2023-04-25T02:49:49;3.57;;;3.27;;
20379;SDS011;10349;48.666;8.948;2023-04-25T02:52:15;3.57;;;3.27;;
20379;SDS011;10349;48.666;8.948;2023-04-25T02:54:41;6.73;;;2.90;;
20379;SDS011;10349;48.666;8.948;2023-04-25T02:57:07;3.47;;;3.20;;
20379;SDS011;10349;48.666;8.948;2023-04-25T02:59:35;3.80;;;3.40;;
20379;SDS011;10349;48.666;8.948;2023-04-25T03:02:02;3.03;;;2.73;;
20379;SDS011;10349;48.666;8.948;2023-04-25T03:04:28;5.97;;;3.40;;
20379;SDS011;10349;48.666;8.948;2023-04-25T03:06:54;3.20;;;3.00;;
20379;SDS011;10349;48.666;8.948;2023-04-25T03:09:20;2.87;;;2.67;;
20379;SDS011;10349;48.666;8.948;2023-04-25T03:11:46;3.10;;;2.47;;
20379;SDS011;10349;48.666;8.948;2023-04-25T03:14:12;2.90;;;2.63;;
20379;SDS011;10349;48.666;8.948;2023-04-25T03:16:38;2.93;;;2.73;;
20379;SDS011;10349;48.666;8.948;2023-04-25T03:19:03;2.83;;;2.63;;
20379;SDS011;10349;48.666;8.948;2023-04-25T03:21:30;3.47;;;3.17;;
20379;SDS011;10349;48.666;8.948;2023-04-25T03:23:58;3.33;;;3.13;;
20379;SDS011;10349;48.666;8.948;2023-04-25T03:26:24;5.80;;;3.07;;
20379;SDS011;10349;48.666;8.948;2023-04-25T03:28:50;4.53;;;3.43;;
20379;SDS011;10349;48.666;8.948;2023-04-25T03:31:16;3.60;;;3.20;;
20379;SDS011;10349;48.666;8.948;2023-04-25T03:33:42;3.27;;;2.97;;
20379;SDS011;10349;48.666;8.948;2023-04-25T03:36:07;3.40;;;3.07;;
20379;SDS011;10349;48.666;8.948;2023-04-25T03:38:33;3.73;;;2.90;;
20379;SDS011;10349;48.666;8.948;2023-04-25T03:41:00;3.20;;;3.00;;
20379;SDS011;10349;48.666;8.948;2023-04-25T03:43:38;3.90;;;3.60;;
20379;SDS011;10349;48.666;8.948;2023-04-25T03:46:09;3.10;;;2.90;;
20379;SDS011;10349;48.666;8.948;2023-04-25T03:48:34;3.80;;;3.47;;
20379;SDS011;10349;48.666;8.948;2023-04-25T03:51:00;7.90;;;3.07;;
20379;SDS011;10349;48.666;8.948;2023-04-25T03:53:26;3.93;;;2.70;;
20379;SDS011;10349;48.666;8.948;2023-04-25T03:56:10;2.67;;;2.53;;
20379;SDS011;10349;48.666;8.948;2023-04-25T03:58:38;4.20;;;3.80;;
20379;SDS011;10349;48.666;8.948;2023-04-25T04:01:04;3.87;;;3.57;;
20379;SDS011;10349;48.666;8.948;2023-04-25T04:03:34;3.77;;;3.47;;
20379;SDS011;10349;48.666;8.948;2023-04-25T04:06:04;3.80;;;3.53;;
20379;SDS011;10349;48.666;8.948;2023-04-25T04:08:34;3.60;;;3.30;;
20379;SDS011;10349;48.666;8.948;2023-04-25T04:11:00;4.00;;;3.70;;
20379;SDS011;10349;48.666;8.948;2023-04-25T04:13:26;5.10;;;4.40;;
20379;SDS011;10349;48.666;8.948;2023-04-25T04:15:52;4.27;;;3.80;;
20379;SDS011;10349;48.666;8.948;2023-04-25T04:18:19;3.67;;;3.47;;
20379;SDS011;10349;48.666;8.948;2023-04-25T04:20:45;3.10;;;2.90;;
20379;SDS011;10349;48.666;8.948;2023-04-25T04:23:11;6.20;;;4.13;;
20379;SDS011;10349;48.666;8.948;2023-04-25T04:25:36;4.13;;;3.77;;
20379;SDS011;10349;48.666;8.948;2023-04-25T04:28:05;4.87;;;4.13;;
20379;SDS011;10349;48.666;8.948;2023-04-25T04:30:52;3.50;;;3.20;;
20379;SDS011;10349;48.666;8.948;2023-04-25T04:33:18;3.60;;;3.37;;
20379;SDS011;10349;48.666;8.948;2023-04-25T04:35:45;5.30;;;3.50;;
20379;SDS011;10349;48.666;8.948;2023-04-25T04:38:12;4.23;;;3.83;;
20379;SDS011;10349;48.666;8.948;2023-04-25T04:40:40;5.10;;;4.73;;
20379;SDS011;10349;48.666;8.948;2023-04-25T04:43:23;5.23;;;4.77;;
20379;SDS011;10349;48.666;8.948;2023-04-25T04:46:06;4.43;;;4.03;;
20379;SDS011;10349;48.666;8.948;2023-04-25T04:48:41;9.03;;;4.80;;
20379;SDS011;10349;48.666;8.948;2023-04-25T04:51:25;6.03;;;5.10;;
20379;SDS011;10349;48.666;8.948;2023-04-25T04:54:06;7.23;;;5.50;;
20379;SDS011;10349;48.666;8.948;2023-04-25T04:56:44;5.27;;;4.83;;
20379;SDS011;10349;48.666;8.948;2023-04-25T04:59:37;5.97;;;4.97;;
20379;SDS011;10349;48.666;8.948;2023-04-25T05:02:41;8.03;;;4.30;;
20379;SDS011;10349;48.666;8.948;2023-04-25T05:05:26;6.17;;;5.30;;
20379;SDS011;10349;48.666;8.948;2023-04-25T05:07:58;7.87;;;4.10;;
20379;SDS011;10349;48.666;8.948;2023-04-25T05:10:49;7.83;;;4.27;;
20379;SDS011;10349;48.666;8.948;2023-04-25T05:13:22;4.97;;;4.57;;
20379;SDS011;10349;48.666;8.948;2023-04-25T05:16:04;5.40;;;4.33;;
20379;SDS011;10349;48.666;8.948;2023-04-25T05:18:38;5.83;;;5.23;;
20379;SDS011;10349;48.666;8.948;2023-04-25T05:21:22;4.50;;;4.10;;
20379;SDS011;10349;48.666;8.948;2023-04-25T05:24:27;4.53;;;4.20;;
20379;SDS011;10349;48.666;8.948;2023-04-25T05:26:58;4.17;;;3.67;;
20379;SDS011;10349;48.666;8.948;2023-04-25T05:29:47;5.23;;;4.60;;
20379;SDS011;10349;48.666;8.948;2023-04-25T05:32:33;5.03;;;4.50;;
20379;SDS011;10349;48.666;8.948;2023-04-25T05:34:59;4.50;;;4.10;;
20379;SDS011;10349;48.666;8.948;2023-04-25T05:37:28;4.70;;;4.17;;
20379;SDS011;10349;48.666;8.948;2023-04-25T05:40:04;4.50;;;4.10;;
20379;SDS011;10349;48.666;8.948;2023-04-25T05:42:49;4.70;;;4.30;;
20379;SDS011;10349;48.666;8.948;2023-04-25T05:45:33;8.40;;;3.90;;
20379;SDS011;10349;48.666;8.948;2023-04-25T05:48:08;4.00;;;3.60;;
20379;SDS011;10349;48.666;8.948;2023-04-25T05:50:56;4.37;;;4.00;;
20379;SDS011;10349;48.666;8.948;2023-04-25T05:53:46;4.43;;;4.10;;
20379;SDS011;10349;48.666;8.948;2023-04-25T05:56:13;4.70;;;4.40;;
20379;SDS011;10349;48.666;8.948;2023-04-25T05:58:42;4.23;;;3.93;;
20379;SDS011;10349;48.666;8.948;2023-04-25T06:01:10;4.30;;;4.00;;
20379;SDS011;10349;48.666;8.948;2023-04-25T06:03:37;4.70;;;4.30;;
20379;SDS011;10349;48.666;8.948;2023-04-25T06:06:03;4.80;;;4.40;;
20379;SDS011;10349;48.666;8.948;2023-04-25T06:08:29;4.17;;;3.87;;
20379;SDS011;10349;48.666;8.948;2023-04-25T06:10:55;4.83;;;3.90;;
20379;SDS011;10349;48.666;8.948;2023-04-25T06:13:22;4.00;;;3.70;;
20379;SDS011;10349;48.666;8.948;2023-04-25T06:15:48;4.47;;;4.10;;
20379;SDS011;10349;48.666;8.948;2023-04-25T06:18:14;4.10;;;3.70;;
20379;SDS011;10349;48.666;8.948;2023-04-25T06:20:39;4.47;;;4.17;;
20379;SDS011;10349;48.666;8.948;2023-04-25T06:23:05;4.20;;;3.90;;
20379;SDS011;10349;48.666;8.948;2023-04-25T06:26:00;4.77;;;4.37;;
20379;SDS011;10349;48.666;8.948;2023-04-25T06:28:27;5.73;;;4.63;;
20379;SDS011;10349;48.666;8.948;2023-04-25T06:30:52;5.13;;;4.70;;
20379;SDS011;10349;48.666;8.948;2023-04-25T06:33:20;5.40;;;4.27;;
20379;SDS011;10349;48.666;8.948;2023-04-25T06:35:47;5.23;;;4.60;;
20379;SDS011;10349;48.666;8.948;2023-04-25T06:38:16;9.70;;;4.53;;
20379;SDS011;10349;48.666;8.948;2023-04-25T06:40:46;4.57;;;3.90;;
20379;SDS011;10349;48.666;8.948;2023-04-25T06:43:11;4.03;;;3.70;;
20379;SDS011;10349;48.666;8.948;2023-04-25T06:45:56;5.20;;;4.70;;
20379;SDS011;10349;48.666;8.948;2023-04-25T06:48:26;4.67;;;4.27;;
20379;SDS011;10349;48.666;8.948;2023-04-25T06:50:52;4.63;;;4.23;;
20379;SDS011;10349;48.666;8.948;2023-04-25T06:53:18;6.27;;;4.30;;
20379;SDS011;10349;48.666;8.948;2023-04-25T06:55:47;6.20;;;5.40;;
20379;SDS011;10349;48.666;8.948;2023-04-25T06:58:19;5.27;;;4.70;;
20379;SDS011;10349;48.666;8.948;2023-04-25T07:00:57;4.63;;;4.23;;
20379;SDS011;10349;48.666;8.948;2023-04-25T07:03:24;4.97;;;4.57;;
20379;SDS011;10349;48.666;8.948;2023-04-25T07:05:54;4.60;;;4.20;;
20379;SDS011;10349;48.666;8.948;2023-04-25T07:08:20;4.00;;;3.70;;
20379;SDS011;10349;48.666;8.948;2023-04-25T07:10:46;4.43;;;4.13;;
20379;SDS011;10349;48.666;8.948;2023-04-25T07:13:12;3.60;;;3.30;;
20379;SDS011;10349;48.666;8.948;2023-04-25T07:15:38;7.30;;;4.60;;
20379;SDS011;10349;48.666;8.948;2023-04-25T07:18:05;4.30;;;4.00;;
20379;SDS011;10349;48.666;8.948;2023-04-25T07:20:30;4.93;;;4.53;;
20379;SDS011;10349;48.666;8.948;2023-04-25T07:22:57;7.40;;;3.80;;
20379;SDS011;10349;48.666;8.948;2023-04-25T07:25:22;4.80;;;4.23;;
20379;SDS011;10349;48.666;8.948;2023-04-25T07:27:49;4.87;;;3.60;;
20379;SDS011;10349;48.666;8.948;2023-04-25T07:30:17;4.53;;;4.20;;
20379;SDS011;10349;48.666;8.948;2023-04-25T07:32:43;4.40;;;4.00;;
20379;SDS011;10349;48.666;8.948;2023-04-25T07:35:08;4.00;;;3.20;;
20379;SDS011;10349;48.666;8.948;2023-04-25T07:37:35;5.53;;;5.03;;
20379;SDS011;10349;48.666;8.948;2023-04-25T07:40:08;4.40;;;4.10;;
20379;SDS011;10349;48.666;8.948;2023-04-25T07:42:36;3.60;;;3.40;;
20379;SDS011;10349;48.666;8.948;2023-04-25T07:45:03;4.87;;;3.70;;
20379;SDS011;10349;48.666;8.948;2023-04-25T07:47:29;5.90;;;4.60;;
20379;SDS011;10349;48.666;8.948;2023-04-25T07:49:55;4.60;;;3.60;;
20379;SDS011;10349;48.666;8.948;2023-04-25T07:52:23;5.07;;;4.60;;
20379;SDS011;10349;48.666;8.948;2023-04-25T07:54:55;3.10;;;2.90;;
20379;SDS011;10349;48.666;8.948;2023-04-25T07:57:28;4.33;;;3.93;;
20379;SDS011;10349;48.666;8.948;2023-04-25T07:59:56;3.43;;;3.23;;
20379;SDS011;10349;48.666;8.948;2023-04-25T08:02:22;3.87;;;3.57;;
20379;SDS011;10349;48.666;8.948;2023-04-25T08:04:48;5.27;;;3.93;;
20379;SDS011;10349;48.666;8.948;2023-04-25T08:07:16;4.30;;;3.33;;
20379;SDS011;10349;48.666;8.948;2023-04-25T08:09:48;4.30;;;4.00;;
20379;SDS011;10349;48.666;8.948;2023-04-25T08:12:22;4.97;;;4.47;;
20379;SDS011;10349;48.666;8.948;2023-04-25T08:14:47;4.87;;;4.40;;
20379;SDS011;10349;48.666;8.948;2023-04-25T08:17:13;4.70;;;4.03;;
20379;SDS011;10349;48.666;8.948;2023-04-25T08:19:40;5.10;;;4.63;;
20379;SDS011;10349;48.666;8.948;2023-04-25T08:22:12;4.07;;;3.77;;
20379;SDS011;10349;48.666;8.948;2023-04-25T08:24:47;5.40;;;4.83;;
20379;SDS011;10349;48.666;8.948;2023-04-25T08:27:13;11.13;;;3.90;;
20379;SDS011;10349;48.666;8.948;2023-04-25T08:29:39;5.53;;;4.50;;
20379;SDS011;10349;48.666;8.948;2023-04-25T08:32:06;4.17;;;3.83;;
20379;SDS011;10349;48.666;8.948;2023-04-25T08:34:35;4.63;;;4.23;;
20379;SDS011;10349;48.666;8.948;2023-04-25T08:37:02;4.30;;;3.97;;
20379;SDS011;10349;48.666;8.948;2023-04-25T08:39:49;4.57;;;4.17;;
20379;SDS011;10349;48.666;8.948;2023-04-25T08:42:23;5.43;;;4.80;;
20379;SDS011;10349;48.666;8.948;2023-04-25T08:44:50;5.27;;;4.77;;
20379;SDS011;10349;48.666;8.948;2023-04-25T08:47:19;4.70;;;4.30;;
20379;SDS011;10349;48.666;8.948;2023-04-25T08:49:51;5.67;;;4.63;;
20379;SDS011;10349;48.666;8.948;2023-04-25T08:52:21;6.60;;;4.77;;
20379;SDS011;10349;48.666;8.948;2023-04-25T08:54:48;3.70;;;3.30;;
20379;SDS011;10349;48.666;8.948;2023-04-25T08:57:17;4.53;;;4.20;;
20379;SDS011;10349;48.666;8.948;2023-04-25T08:59:44;4.00;;;3.80;;
20379;SDS011;10349;48.666;8.948;2023-04-25T09:02:12;4.43;;;3.80;;
20379;SDS011;10349;48.666;8.948;2023-04-25T09:04:44;3.90;;;3.60;;
20379;SDS011;10349;48.666;8.948;2023-04-25T09:07:10;4.20;;;3.80;;
20379;SDS011;10349;48.666;8.948;2023-04-25T09:09:37;3.70;;;3.33;;
20379;SDS011;10349;48.666;8.948;2023-04-25T09:12:03;3.77;;;3.40;;
20379;SDS011;10349;48.666;8.948;2023-04-25T09:14:29;3.53;;;3.33;;
20379;SDS011;10349;48.666;8.948;2023-04-25T09:17:00;3.90;;;3.60;;
20379;SDS011;10349;48.666;8.948;2023-04-25T09:19:38;2.73;;;2.53;;
20379;SDS011;10349;48.666;8.948;2023-04-25T09:22:07;4.23;;;2.80;;
20379;SDS011;10349;48.666;8.948;2023-04-25T09:24:35;2.80;;;2.53;;
20379;SDS011;10349;48.666;8.948;2023-04-25T09:27:20;2.93;;;2.30;;
20379;SDS011;10349;48.666;8.948;2023-04-25T09:29:56;2.37;;;2.10;;
20379;SDS011;10349;48.666;8.948;2023-04-25T09:32:24;2.13;;;1.87;;
20379;SDS011;10349;48.666;8.948;2023-04-25T09:34:53;1.60;;;1.50;;
20379;SDS011;10349;48.666;8.948;2023-04-25T09:37:24;1.43;;;1.33;;
20379;SDS011;10349;48.666;8.948;2023-04-25T09:40:13;1.67;;;1.47;;
20379;SDS011;10349;48.666;8.948;2023-04-25T09:42:59;2.10;;;0.90;;
20379;SDS011;10349;48.666;8.948;2023-04-25T09:45:29;1.33;;;1.10;;
20379;SDS011;10349;48.666;8.948;2023-04-25T09:47:56;0.93;;;0.70;;
20379;SDS011;10349;48.666;8.948;2023-04-25T09:50:30;4.87;;;1.20;;
20379;SDS011;10349;48.666;8.948;2023-04-25T09:53:04;1.20;;;1.03;;
20379;SDS011;10349;48.666;8.948;2023-04-25T09:55:47;1.30;;;1.20;;
20379;SDS011;10349;48.666;8.948;2023-04-25T09:58:13;1.07;;;0.80;;
20379;SDS011;10349;48.666;8.948;2023-04-25T10:00:40;1.50;;;1.20;;
20379;SDS011;10349;48.666;8.948;2023-04-25T10:03:19;1.53;;;1.10;;
20379;SDS011;10349;48.666;8.948;2023-04-25T10:06:01;1.10;;;0.90;;
20379;SDS011;10349;48.666;8.948;2023-04-25T10:08:31;1.33;;;1.23;;
20379;SDS011;10349;48.666;8.948;2023-04-25T10:11:02;1.70;;;1.60;;
20379;SDS011;10349;48.666;8.948;2023-04-25T10:13:31;1.73;;;1.63;;
20379;SDS011;10349;48.666;8.948;2023-04-25T10:15:58;1.80;;;1.70;;
20379;SDS011;10349;48.666;8.948;2023-04-25T10:18:26;1.53;;;1.07;;
20379;SDS011;10349;48.666;8.948;2023-04-25T10:20:54;1.00;;;0.73;;
20379;SDS011;10349;48.666;8.948;2023-04-25T10:23:21;1.40;;;1.20;;
20379;SDS011;10349;48.666;8.948;2023-04-25T10:25:48;1.10;;;1.00;;
20379;SDS011;10349;48.666;8.948;2023-04-25T10:28:16;1.23;;;1.00;;
20379;SDS011;10349;48.666;8.948;2023-04-25T10:33:37;2.70;;;2.50;;
20379;SDS011;10349;48.666;8.948;2023-04-25T10:36:08;3.70;;;3.40;;
20379;SDS011;10349;48.666;8.948;2023-04-25T10:38:38;1.30;;;1.20;;
20379;SDS011;10349;48.666;8.948;2023-04-25T10:41:05;1.00;;;0.83;;
20379;SDS011;10349;48.666;8.948;2023-04-25T10:46:22;0.80;;;0.60;;
20379;SDS011;10349;48.666;8.948;2023-04-25T10:48:59;2.67;;;2.47;;
20379;SDS011;10349;48.666;8.948;2023-04-25T10:51:27;3.60;;;3.40;;
20379;SDS011;10349;48.666;8.948;2023-04-25T10:56:28;1.60;;;1.50;;
20379;SDS011;10349;48.666;8.948;2023-04-25T11:01:29;0.90;;;0.80;;
20379;SDS011;10349;48.666;8.948;2023-04-25T11:04:04;1.07;;;0.80;;
20379;SDS011;10349;48.666;8.948;2023-04-25T11:09:27;1.10;;;1.00;;
20379;SDS011;10349;48.666;8.948;2023-04-25T11:11:54;1.40;;;1.30;;
20379;SDS011;10349;48.666;8.948;2023-04-25T11:14:20;1.10;;;1.00;;
20379;SDS011;10349;48.666;8.948;2023-04-25T11:16:47;0.93;;;0.83;;
20379;SDS011;10349;48.666;8.948;2023-04-25T11:19:12;1.00;;;0.83;;
20379;SDS011;10349;48.666;8.948;2023-04-25T11:21:38;0.90;;;0.77;;
20379;SDS011;10349;48.666;8.948;2023-04-25T11:24:04;0.90;;;0.80;;
20379;SDS011;10349;48.666;8.948;2023-04-25T11:26:33;2.30;;;2.10;;
20379;SDS011;10349;48.666;8.948;2023-04-25T11:28:59;1.40;;;1.30;;
20379;SDS011;10349;48.666;8.948;2023-04-25T11:31:25;0.93;;;0.83;;
20379;SDS011;10349;48.666;8.948;2023-04-25T11:33:53;4.10;;;0.80;;
20379;SDS011;10349;48.666;8.948;2023-04-25T11:36:19;1.40;;;1.27;;
20379;SDS011;10349;48.666;8.948;2023-04-25T11:38:45;1.40;;;1.30;;
20379;SDS011;10349;48.666;8.948;2023-04-25T11:41:11;1.60;;;1.50;;
20379;SDS011;10349;48.666;8.948;2023-04-25T11:43:39;2.00;;;1.80;;
20379;SDS011;10349;48.666;8.948;2023-04-25T11:46:08;1.60;;;1.50;;
20379;SDS011;10349;48.666;8.948;2023-04-25T11:48:41;1.80;;;1.70;;
20379;SDS011;10349;48.666;8.948;2023-04-25T11:51:07;2.57;;;2.37;;
20379;SDS011;10349;48.666;8.948;2023-04-25T11:53:33;2.80;;;2.60;;
20379;SDS011;10349;48.666;8.948;2023-04-25T11:56:00;3.70;;;2.93;;
20379;SDS011;10349;48.666;8.948;2023-04-25T11:58:26;3.00;;;2.80;;
20379;SDS011;10349;48.666;8.948;2023-04-25T12:00:55;3.20;;;2.90;;
20379;SDS011;10349;48.666;8.948;2023-04-25T12:03:23;5.67;;;3.30;;
20379;SDS011;10349;48.666;8.948;2023-04-25T12:05:51;3.67;;;3.33;;
20379;SDS011;10349;48.666;8.948;2023-04-25T12:08:16;3.30;;;3.07;;
20379;SDS011;10349;48.666;8.948;2023-04-25T12:10:43;3.70;;;3.40;;
20379;SDS011;10349;48.666;8.948;2023-04-25T12:13:23;3.20;;;2.97;;
20379;SDS011;10349;48.666;8.948;2023-04-25T12:15:50;3.27;;;3.07;;
20379;SDS011;10349;48.666;8.948;2023-04-25T12:18:19;4.10;;;3.67;;
20379;SDS011;10349;48.666;8.948;2023-04-25T12:20:48;3.10;;;2.80;;
20379;SDS011;10349;48.666;8.948;2023-04-25T12:23:13;2.90;;;2.70;;
20379;SDS011;10349;48.666;8.948;2023-04-25T12:25:40;3.77;;;3.47;;
20379;SDS011;10349;48.666;8.948;2023-04-25T12:33:35;4.17;;;3.77;;
20379;SDS011;10349;48.666;8.948;2023-04-25T12:36:03;3.77;;;2.97;;
20379;SDS011;10349;48.666;8.948;2023-04-25T12:38:36;3.50;;;3.23;;
20379;SDS011;10349;48.666;8.948;2023-04-25T12:41:06;3.20;;;2.70;;
20379;SDS011;10349;48.666;8.948;2023-04-25T12:43:32;2.80;;;2.60;;
20379;SDS011;10349;48.666;8.948;2023-04-25T12:45:58;3.23;;;3.03;;
20379;SDS011;10349;48.666;8.948;2023-04-25T12:48:26;3.03;;;2.83;;
20379;SDS011;10349;48.666;8.948;2023-04-25T12:50:56;3.70;;;3.20;;
20379;SDS011;10349;48.666;8.948;2023-04-25T12:53:22;3.93;;;3.63;;
20379;SDS011;10349;48.666;8.948;2023-04-25T12:55:51;4.83;;;3.33;;
20379;SDS011;10349;48.666;8.948;2023-04-25T12:58:17;4.83;;;3.83;;
20379;SDS011;10349;48.666;8.948;2023-04-25T13:00:44;3.10;;;2.90;;
20379;SDS011;10349;48.666;8.948;2023-04-25T13:03:10;4.13;;;3.83;;
20379;SDS011;10349;48.666;8.948;2023-04-25T13:05:40;4.47;;;4.07;;
20379;SDS011;10349;48.666;8.948;2023-04-25T13:08:12;4.70;;;4.00;;
20379;SDS011;10349;48.666;8.948;2023-04-25T13:10:37;4.27;;;3.87;;
20379;SDS011;10349;48.666;8.948;2023-04-25T13:13:04;5.00;;;4.43;;
20379;SDS011;10349;48.666;8.948;2023-04-25T13:15:30;9.00;;;4.03;;
20379;SDS011;10349;48.666;8.948;2023-04-25T13:17:55;5.40;;;4.90;;
20379;SDS011;10349;48.666;8.948;2023-04-25T13:20:21;4.13;;;3.83;;
20379;SDS011;10349;48.666;8.948;2023-04-25T13:22:47;5.07;;;4.47;;
20379;SDS011;10349;48.666;8.948;2023-04-25T13:25:16;5.77;;;4.00;;
20379;SDS011;10349;48.666;8.948;2023-04-25T13:27:41;4.60;;;4.30;;
20379;SDS011;10349;48.666;8.948;2023-04-25T13:30:09;5.10;;;3.80;;
20379;SDS011;10349;48.666;8.948;2023-04-25T13:32:35;5.53;;;3.80;;
20379;SDS011;10349;48.666;8.948;2023-04-25T13:35:06;4.90;;;4.00;;
20379;SDS011;10349;48.666;8.948;2023-04-25T13:37:37;7.97;;;4.50;;
20379;SDS011;10349;48.666;8.948;2023-04-25T13:40:04;5.43;;;4.67;;
20379;SDS011;10349;48.666;8.948;2023-04-25T13:42:35;4.50;;;4.10;;
20379;SDS011;10349;48.666;8.948;2023-04-25T13:45:01;3.60;;;3.30;;
20379;SDS011;10349;48.666;8.948;2023-04-25T13:47:27;5.10;;;4.20;;
20379;SDS011;10349;48.666;8.948;2023-04-25T13:49:53;4.47;;;4.10;;
20379;SDS011;10349;48.666;8.948;2023-04-25T13:52:19;5.57;;;4.53;;
20379;SDS011;10349;48.666;8.948;2023-04-25T13:54:45;4.30;;;3.90;;
20379;SDS011;10349;48.666;8.948;2023-04-25T13:57:11;4.40;;;4.03;;
20379;SDS011;10349;48.666;8.948;2023-04-25T13:59:39;8.10;;;5.50;;
20379;SDS011;10349;48.666;8.948;2023-04-25T14:02:06;6.90;;;4.80;;
20379;SDS011;10349;48.666;8.948;2023-04-25T14:04:32;5.20;;;4.40;;
20379;SDS011;10349;48.666;8.948;2023-04-25T14:06:59;5.83;;;5.23;;
20379;SDS011;10349;48.666;8.948;2023-04-25T14:09:24;8.03;;;4.90;;
20379;SDS011;10349;48.666;8.948;2023-04-25T14:11:52;7.57;;;5.30;;
20379;SDS011;10349;48.666;8.948;2023-04-25T14:14:18;6.93;;;5.50;;
20379;SDS011;10349;48.666;8.948;2023-04-25T14:16:44;5.17;;;4.70;;
20379;SDS011;10349;48.666;8.948;2023-04-25T14:19:10;5.40;;;4.60;;
20379;SDS011;10349;48.666;8.948;2023-04-25T14:21:36;4.83;;;4.37;;
20379;SDS011;10349;48.666;8.948;2023-04-25T14:24:02;4.57;;;4.20;;
20379;SDS011;10349;48.666;8.948;2023-04-25T14:26:28;5.10;;;4.60;;
20379;SDS011;10349;48.666;8.948;2023-04-25T14:28:53;4.27;;;3.97;;
20379;SDS011;10349;48.666;8.948;2023-04-25T14:31:19;3.60;;;3.30;;
20379;SDS011;10349;48.666;8.948;2023-04-25T14:33:45;3.70;;;3.40;;
20379;SDS011;10349;48.666;8.948;2023-04-25T14:36:10;4.00;;;3.67;;
20379;SDS011;10349;48.666;8.948;2023-04-25T14:38:36;3.97;;;3.63;;
20379;SDS011;10349;48.666;8.948;2023-04-25T14:41:01;4.20;;;3.90;;
20379;SDS011;10349;48.666;8.948;2023-04-25T14:43:28;4.63;;;4.13;;
20379;SDS011;10349;48.666;8.948;2023-04-25T14:45:54;3.47;;;3.17;;
20379;SDS011;10349;48.666;8.948;2023-04-25T14:48:20;3.60;;;3.30;;
20379;SDS011;10349;48.666;8.948;2023-04-25T14:50:46;3.37;;;3.17;;
20379;SDS011;10349;48.666;8.948;2023-04-25T14:53:11;3.50;;;2.90;;
20379;SDS011;10349;48.666;8.948;2023-04-25T14:55:38;2.37;;;2.20;;
20379;SDS011;10349;48.666;8.948;2023-04-25T14:58:03;2.50;;;2.30;;
20379;SDS011;10349;48.666;8.948;2023-04-25T15:00:29;2.37;;;2.20;;
20379;SDS011;10349;48.666;8.948;2023-04-25T15:02:56;1.90;;;1.80;;
20379;SDS011;10349;48.666;8.948;2023-04-25T15:05:23;2.80;;;2.00;;
20379;SDS011;10349;48.666;8.948;2023-04-25T15:07:49;2.23;;;1.90;;
20379;SDS011;10349;48.666;8.948;2023-04-25T15:10:14;2.27;;;2.07;;
20379;SDS011;10349;48.666;8.948;2023-04-25T15:12:45;1.83;;;1.73;;
20379;SDS011;10349;48.666;8.948;2023-04-25T15:15:10;1.67;;;1.57;;
20379;SDS011;10349;48.666;8.948;2023-04-25T15:17:37;1.73;;;1.63;;
20379;SDS011;10349;48.666;8.948;2023-04-25T15:20:05;1.40;;;1.30;;
20379;SDS011;10349;48.666;8.948;2023-04-25T15:22:31;1.50;;;1.40;;